Terminal Aerodrome Forecast
Issued by NWS Brownsville, TX

Home | Current Version | Previous Version | Text Only | Print | Product List | Glossary On
Versions: 1 2 3 4 5 6 7 8 9 10 11 12
000
FTUS44 KBRO 302320
TAFMFE
TAF
KMFE 302320Z 3100/3124 12015G20KT P6SM FEW250
     FM310300 14008KT P6SM FEW025
     FM311500 15008KT P6SM SCT040
      TEMPO 3118/3122 TSRA BKN030CB
     FM312200 12015G20KT P6SM SCT250=

USA.gov is the U.S. government's official web portal to all federal, state and local government web resources and services.